Terminal Aerodrome Forecast
Issued by NWS Green Bay, WI

Home | Current Version | Previous Version | Text Only | Print | Product List | Glossary Off
Versions: 1 2 3 4 5 6 7 8 9 10 11 12 13 14 15 16

000
FTUS43 KGRB 190532
TAFGRB
TAF
KGRB 190532Z 1906/2006 29005KT P6SM SCT035 BKN120
     FM190900 27003KT P6SM SCT150
      TEMPO 1910/1913 5SM BR
     FM191400 26008KT P6SM FEW040
     FM200100 22004KT P6SM SKC=

USA.gov is the U.S. government's official web portal to all federal, state and local government web resources and services.